createdAt,value
2017-12-12T00:00:27.739Z,0
2017-12-12T00:01:27.738Z,0
2017-12-12T00:02:27.784Z,0
2017-12-12T00:03:27.791Z,0
2017-12-12T00:04:27.826Z,0
2017-12-12T00:05:27.815Z,0
2017-12-12T00:06:27.823Z,0
2017-12-12T00:07:27.846Z,0
2017-12-12T00:08:27.881Z,0
2017-12-12T00:09:27.618Z,0
2017-12-12T00:10:27.933Z,0
2017-12-12T00:11:27.906Z,0
2017-12-12T00:12:42.615Z,0
2017-12-12T00:13:27.672Z,0
2017-12-12T00:14:28.052Z,0
2017-12-12T00:15:42.675Z,0
2017-12-12T00:16:27.725Z,0
2017-12-12T00:17:27.772Z,0
2017-12-12T00:18:28.022Z,0
2017-12-12T00:19:28.031Z,0
2017-12-12T00:20:28.076Z,0
2017-12-12T00:21:28.096Z,0
2017-12-12T00:22:28.114Z,0
2017-12-12T00:23:28.138Z,0
2017-12-12T00:24:28.176Z,0
2017-12-12T00:25:28.161Z,0
2017-12-12T00:26:28.208Z,0
2017-12-12T00:27:42.615Z,0
2017-12-12T00:28:28.212Z,0
2017-12-12T00:29:42.875Z,0
2017-12-12T00:30:42.957Z,0
2017-12-12T00:31:28.236Z,0
2017-12-12T00:32:28.279Z,0
2017-12-12T00:33:28.296Z,0
2017-12-12T00:34:28.316Z,0
2017-12-12T00:35:28.327Z,0
2017-12-12T00:36:28.370Z,0
2017-12-12T00:37:28.474Z,0
2017-12-12T00:38:28.401Z,0
2017-12-12T00:39:28.426Z,0
2017-12-12T00:40:28.420Z,0
2017-12-12T00:41:28.438Z,0
2017-12-12T00:42:28.456Z,0
2017-12-12T00:43:28.461Z,0
2017-12-12T00:44:28.513Z,0
2017-12-12T00:45:28.526Z,0
2017-12-12T00:46:28.251Z,0
2017-12-12T00:47:28.572Z,0
2017-12-12T00:48:28.581Z,0
2017-12-12T00:49:28.608Z,0
2017-12-12T00:50:28.589Z,0
2017-12-12T00:51:28.592Z,0
2017-12-12T00:52:28.604Z,0
2017-12-12T00:53:43.321Z,0
2017-12-12T00:54:28.666Z,0
2017-12-12T00:55:43.351Z,0
2017-12-12T00:56:28.693Z,0
2017-12-12T00:57:43.360Z,0
2017-12-12T00:58:28.705Z,0
2017-12-12T00:59:28.712Z,0
2017-12-12T01:00:43.443Z,0
2017-12-12T01:01:28.527Z,0
2017-12-12T01:02:43.439Z,0
2017-12-12T01:03:28.559Z,0
2017-12-12T01:04:28.852Z,0
2017-12-12T01:05:28.824Z,0
2017-12-12T01:06:28.853Z,0
2017-12-12T01:07:28.889Z,0
2017-12-12T01:08:28.900Z,0
2017-12-12T01:09:28.909Z,0
2017-12-12T01:10:28.903Z,0
2017-12-12T01:11:28.956Z,0
2017-12-12T01:12:28.945Z,0
2017-12-12T01:13:28.700Z,0
2017-12-12T01:14:43.396Z,0
2017-12-12T01:15:28.985Z,0
2017-12-12T01:16:28.784Z,0
2017-12-12T01:17:29.049Z,0
2017-12-12T01:18:43.749Z,0
2017-12-12T01:19:29.096Z,0
2017-12-12T01:20:29.094Z,0
2017-12-12T01:21:29.125Z,0
2017-12-12T01:22:29.240Z,0
2017-12-12T01:23:43.804Z,0
2017-12-12T01:24:29.159Z,0
2017-12-12T01:25:29.191Z,0
2017-12-12T01:27:43.906Z,0
2017-12-12T01:28:43.913Z,0
2017-12-12T01:29:43.900Z,0
2017-12-12T01:30:29.261Z,0
2017-12-12T01:31:29.289Z,0
2017-12-12T01:32:29.300Z,0
2017-12-12T01:33:29.287Z,0
2017-12-12T01:34:43.730Z,0
2017-12-12T01:35:44.019Z,0
2017-12-12T01:36:29.364Z,0
2017-12-12T01:37:29.105Z,0
2017-12-12T01:38:29.414Z,0
2017-12-12T01:39:29.430Z,0
2017-12-12T01:40:44.110Z,0
2017-12-12T01:41:29.473Z,0
2017-12-12T01:42:44.144Z,0
2017-12-12T01:43:29.496Z,0
2017-12-12T01:44:29.504Z,0
2017-12-12T01:45:29.545Z,0
2017-12-12T01:46:29.550Z,0
2017-12-12T01:47:29.571Z,0
2017-12-12T01:48:29.562Z,0
2017-12-12T01:49:29.591Z,0
2017-12-12T01:50:44.346Z,0
2017-12-12T01:51:29.603Z,0
2017-12-12T01:52:29.659Z,0
2017-12-12T01:53:29.388Z,0
2017-12-12T01:54:44.371Z,0
2017-12-12T01:55:29.691Z,0
2017-12-12T01:57:29.473Z,0
2017-12-12T01:58:29.745Z,0
2017-12-12T01:59:29.759Z,0
2017-12-12T02:00:29.512Z,0
2017-12-12T02:01:29.769Z,0
2017-12-12T02:02:29.806Z,0
2017-12-12T02:03:44.507Z,0
2017-12-12T02:05:44.544Z,0
2017-12-12T02:06:44.534Z,0
2017-12-12T02:07:29.870Z,0
2017-12-12T02:08:29.950Z,0
2017-12-12T02:09:29.679Z,0
2017-12-12T02:10:29.962Z,0
2017-12-12T02:11:29.963Z,0
2017-12-12T02:12:29.990Z,0
2017-12-12T02:13:30.087Z,0
2017-12-12T02:14:30.015Z,0
2017-12-12T02:15:44.705Z,0
2017-12-12T02:17:30.091Z,0
2017-12-12T02:20:44.793Z,0
2017-12-12T02:21:29.877Z,0
2017-12-12T02:22:30.168Z,0
2017-12-12T02:23:30.171Z,0
2017-12-12T02:25:44.862Z,0
2017-12-12T02:26:30.226Z,0
2017-12-12T02:27:44.903Z,0
2017-12-12T02:28:44.942Z,0
2017-12-12T02:29:30.003Z,0
2017-12-12T02:30:30.306Z,0
2017-12-12T02:32:30.350Z,0
2017-12-12T02:33:30.359Z,0
2017-12-12T02:35:30.399Z,0
2017-12-12T02:36:30.431Z,0
2017-12-12T02:37:45.077Z,0
2017-12-12T02:38:30.409Z,0
2017-12-12T02:39:30.452Z,0
2017-12-12T02:40:45.133Z,0
2017-12-12T02:41:30.479Z,0
2017-12-12T02:42:30.516Z,0
2017-12-12T02:43:30.528Z,0
2017-12-12T02:44:30.529Z,0
2017-12-12T02:45:30.319Z,0
2017-12-12T02:46:30.593Z,0
2017-12-12T02:47:30.577Z,0
2017-12-12T02:48:30.372Z,0
2017-12-12T02:49:30.404Z,0
2017-12-12T02:50:30.667Z,0
2017-12-12T02:51:30.665Z,0
2017-12-12T02:52:30.400Z,0
2017-12-12T02:53:45.093Z,0
2017-12-12T02:54:30.740Z,0
2017-12-12T02:55:30.763Z,0
2017-12-12T02:57:30.735Z,0
2017-12-12T02:58:30.781Z,0
2017-12-12T02:59:30.555Z,0
2017-12-12T03:00:30.843Z,0
2017-12-12T03:02:30.571Z,0
2017-12-12T03:03:30.867Z,0
2017-12-12T03:04:30.924Z,0
2017-12-12T03:05:30.644Z,0
2017-12-12T03:06:45.586Z,0
2017-12-12T03:07:30.664Z,0
2017-12-12T03:08:30.951Z,0
2017-12-12T03:09:45.614Z,0
2017-12-12T03:10:45.670Z,0
2017-12-12T03:11:31.024Z,0
2017-12-12T03:13:45.726Z,0
2017-12-12T03:14:31.039Z,0
2017-12-12T03:15:31.069Z,0
2017-12-12T03:16:31.113Z,0
2017-12-12T03:17:31.090Z,0
2017-12-12T03:18:45.808Z,0
2017-12-12T03:19:30.870Z,0
2017-12-12T03:21:31.150Z,0
2017-12-12T03:24:31.227Z,0
2017-12-12T03:25:45.889Z,0
2017-12-12T03:26:31.239Z,0
2017-12-12T03:27:31.288Z,0
2017-12-12T03:28:31.276Z,0
2017-12-12T03:29:31.088Z,0
2017-12-12T03:30:31.090Z,0
2017-12-12T03:31:31.335Z,0
2017-12-12T03:32:46.033Z,0
2017-12-12T03:33:31.392Z,0
2017-12-12T03:34:31.390Z,0
2017-12-12T03:35:31.432Z,0
2017-12-12T03:36:46.118Z,0
2017-12-12T03:37:46.134Z,0
2017-12-12T03:38:31.451Z,0
2017-12-12T03:39:31.474Z,0
2017-12-12T03:40:46.188Z,0
2017-12-12T03:41:31.500Z,0
2017-12-12T03:42:31.275Z,0
2017-12-12T03:43:31.557Z,0
2017-12-12T03:44:31.561Z,0
2017-12-12T03:45:31.583Z,0
2017-12-12T03:46:31.607Z,0
2017-12-12T03:47:31.618Z,0
2017-12-12T03:49:46.306Z,0
2017-12-12T03:50:46.334Z,0
2017-12-12T03:51:31.723Z,0
2017-12-12T03:52:31.738Z,0
2017-12-12T03:53:46.400Z,0
2017-12-12T03:54:31.745Z,0
2017-12-12T03:55:31.767Z,0
2017-12-12T03:57:31.799Z,0
2017-12-12T03:58:31.820Z,0
2017-12-12T03:59:46.491Z,0
2017-12-12T04:00:31.833Z,0
2017-12-12T04:01:31.856Z,0
2017-12-12T04:02:31.891Z,0
2017-12-12T04:03:31.658Z,0
2017-12-12T04:04:31.681Z,0
2017-12-12T04:05:31.942Z,0
2017-12-12T04:06:31.941Z,0
2017-12-12T04:07:32.060Z,0
2017-12-12T04:08:46.633Z,0
2017-12-12T04:09:46.650Z,0
2017-12-12T04:10:32.039Z,0
2017-12-12T04:11:32.000Z,0
2017-12-12T04:12:46.697Z,0
2017-12-12T04:13:46.738Z,0
2017-12-12T04:14:46.741Z,0
2017-12-12T04:15:32.126Z,0
2017-12-12T04:16:32.107Z,0
2017-12-12T04:17:32.169Z,0
2017-12-12T04:18:32.172Z,0
2017-12-12T04:19:31.916Z,0
2017-12-12T04:20:32.188Z,0
2017-12-12T04:21:31.953Z,0
2017-12-12T04:24:32.272Z,0
2017-12-12T04:25:32.266Z,0
2017-12-12T04:26:32.350Z,0
2017-12-12T04:28:46.968Z,0
2017-12-12T04:29:32.357Z,0
2017-12-12T04:30:32.356Z,0
2017-12-12T04:31:32.382Z,0
2017-12-12T04:32:32.148Z,0
2017-12-12T04:33:32.445Z,0
2017-12-12T04:34:32.445Z,0
2017-12-12T04:35:32.469Z,0
2017-12-12T04:36:32.462Z,0
2017-12-12T04:37:32.484Z,0
2017-12-12T04:38:32.475Z,0
2017-12-12T04:39:32.513Z,0
2017-12-12T04:40:32.545Z,0
2017-12-12T04:41:32.045Z,0
2017-12-12T04:42:32.565Z,0
2017-12-12T04:43:32.605Z,0
2017-12-12T04:44:47.284Z,0
2017-12-12T04:45:32.106Z,0
2017-12-12T04:46:32.668Z,0
2017-12-12T04:47:32.657Z,0
2017-12-12T04:48:32.694Z,0
2017-12-12T04:49:32.693Z,0
2017-12-12T04:50:32.693Z,0
2017-12-12T04:51:32.723Z,0
2017-12-12T04:52:32.727Z,0
2017-12-12T04:53:32.774Z,0
2017-12-12T04:54:32.800Z,0
2017-12-12T04:55:32.770Z,0
2017-12-12T04:56:32.822Z,0
2017-12-12T04:57:32.880Z,0
2017-12-12T04:58:32.851Z,0
2017-12-12T04:59:47.031Z,0
2017-12-12T05:00:47.541Z,0
2017-12-12T05:01:32.648Z,0
2017-12-12T05:02:32.933Z,0
2017-12-12T05:03:32.698Z,0
2017-12-12T05:04:32.968Z,0
2017-12-12T05:05:32.974Z,0
2017-12-12T05:06:47.680Z,0
2017-12-12T05:07:33.021Z,0
2017-12-12T05:08:33.018Z,0
2017-12-12T05:09:32.784Z,0
2017-12-12T05:10:33.061Z,0
2017-12-12T05:11:33.070Z,0
2017-12-12T05:12:33.072Z,0
2017-12-12T05:13:33.106Z,0
2017-12-12T05:14:33.127Z,0
2017-12-12T05:15:47.823Z,0
2017-12-12T05:17:33.192Z,0
2017-12-12T05:18:33.227Z,0
2017-12-12T05:19:33.209Z,0
2017-12-12T05:20:47.940Z,0
2017-12-12T05:21:33.249Z,0
2017-12-12T05:22:33.272Z,0
2017-12-12T05:23:33.265Z,0
2017-12-12T05:24:47.991Z,0
2017-12-12T05:25:33.327Z,0
2017-12-12T05:26:33.356Z,0
2017-12-12T05:27:33.384Z,0
2017-12-12T05:28:48.054Z,0
2017-12-12T05:29:48.081Z,0
2017-12-12T05:30:33.408Z,0
2017-12-12T05:31:48.120Z,0
2017-12-12T05:32:33.453Z,0
2017-12-12T05:33:33.467Z,0
2017-12-12T05:34:33.209Z,0
2017-12-12T05:35:33.491Z,0
2017-12-12T05:36:33.528Z,0
2017-12-12T05:37:48.188Z,0
2017-12-12T05:38:33.547Z,0
2017-12-12T05:39:33.573Z,0
2017-12-12T05:40:33.583Z,0
2017-12-12T05:41:33.594Z,0
2017-12-12T05:42:33.637Z,0
2017-12-12T05:44:33.662Z,0
2017-12-12T05:45:33.669Z,0
2017-12-12T05:46:33.436Z,0
2017-12-12T05:47:48.359Z,0
2017-12-12T05:48:33.749Z,0
2017-12-12T05:49:33.760Z,0
2017-12-12T05:50:33.748Z,0
2017-12-12T05:51:33.810Z,0
2017-12-12T05:52:33.546Z,0
2017-12-12T05:53:33.837Z,0
2017-12-12T05:54:33.951Z,0
2017-12-12T05:55:33.879Z,0
2017-12-12T05:56:33.643Z,0
2017-12-12T05:57:33.626Z,0
2017-12-12T05:58:33.899Z,0
2017-12-12T05:59:33.681Z,0
2017-12-12T06:00:33.952Z,0
2017-12-12T06:01:33.697Z,0
2017-12-12T06:02:33.985Z,0
2017-12-12T06:03:48.682Z,0
2017-12-12T06:04:34.020Z,0
2017-12-12T06:05:33.992Z,0
2017-12-12T06:06:34.046Z,0
2017-12-12T06:07:34.047Z,0
2017-12-12T06:08:34.060Z,0
2017-12-12T06:09:33.873Z,0
2017-12-12T06:10:34.119Z,0
2017-12-12T06:11:34.142Z,0
2017-12-12T06:12:48.566Z,0
2017-12-12T06:13:34.164Z,0
2017-12-12T06:14:48.922Z,0
2017-12-12T06:16:34.315Z,0
2017-12-12T06:17:34.264Z,0
2017-12-12T06:18:34.269Z,0
2017-12-12T06:19:48.925Z,0
2017-12-12T06:20:34.267Z,0
2017-12-12T06:21:34.313Z,0
2017-12-12T06:22:34.072Z,0
2017-12-12T06:23:34.323Z,0
2017-12-12T06:24:34.368Z,0
2017-12-12T06:25:34.399Z,0
2017-12-12T06:26:34.420Z,0
2017-12-12T06:27:34.426Z,0
2017-12-12T06:28:34.159Z,0
2017-12-12T06:29:34.466Z,0
2017-12-12T06:30:34.525Z,0
2017-12-12T06:31:34.476Z,0
2017-12-12T06:32:34.541Z,0
2017-12-12T06:33:34.534Z,0
2017-12-12T06:35:49.216Z,0
2017-12-12T06:36:34.595Z,0
2017-12-12T06:37:34.639Z,0
2017-12-12T06:38:34.582Z,0
2017-12-12T06:40:34.655Z,0
2017-12-12T06:41:34.684Z,0
2017-12-12T06:42:34.690Z,0
2017-12-12T06:43:34.705Z,0
2017-12-12T06:44:49.387Z,0
2017-12-12T06:45:34.779Z,0
2017-12-12T06:46:34.755Z,0
2017-12-12T06:47:34.796Z,4
2017-12-12T06:48:34.781Z,4
2017-12-12T06:49:49.199Z,4
2017-12-12T06:50:49.507Z,0
2017-12-12T06:51:34.576Z,4
2017-12-12T06:52:49.250Z,4
2017-12-12T06:54:34.894Z,8
2017-12-12T06:55:34.659Z,8
2017-12-12T06:57:34.950Z,12
2017-12-12T06:58:34.980Z,16
2017-12-12T06:59:34.983Z,20
2017-12-12T07:00:34.999Z,20
2017-12-12T07:01:34.788Z,24
2017-12-12T07:02:35.051Z,24
2017-12-12T07:03:35.120Z,24
2017-12-12T07:04:34.317Z,24
2017-12-12T07:05:34.840Z,24
2017-12-12T07:06:35.118Z,28
2017-12-12T07:07:35.146Z,24
2017-12-12T07:08:34.871Z,28
2017-12-12T07:10:35.183Z,32
2017-12-12T07:11:49.887Z,32
2017-12-12T07:12:35.196Z,36
2017-12-12T07:14:35.282Z,40
2017-12-12T07:15:35.301Z,44
2017-12-12T07:16:49.960Z,48
2017-12-12T07:17:35.290Z,48
2017-12-12T07:18:35.317Z,52
2017-12-12T07:19:35.104Z,52
2017-12-12T07:20:35.351Z,56
2017-12-12T07:21:35.386Z,56
2017-12-12T07:22:50.075Z,60
2017-12-12T07:23:35.426Z,60
2017-12-12T07:24:35.440Z,64
2017-12-12T07:25:35.408Z,68
2017-12-12T07:26:35.494Z,72
2017-12-12T07:27:35.473Z,80
2017-12-12T07:28:35.490Z,80
2017-12-12T07:29:50.214Z,80
2017-12-12T07:30:35.673Z,88
2017-12-12T07:31:50.322Z,100
2017-12-12T07:32:35.558Z,96
2017-12-12T07:33:50.271Z,100
2017-12-12T07:35:50.289Z,120
2017-12-12T07:36:35.377Z,124
2017-12-12T07:37:50.316Z,136
2017-12-12T07:39:35.693Z,156
2017-12-12T07:40:50.377Z,172
2017-12-12T07:41:35.742Z,192
2017-12-12T07:42:35.766Z,188
2017-12-12T07:43:35.505Z,212
2017-12-12T07:44:35.756Z,236
2017-12-12T07:45:35.539Z,236
2017-12-12T07:46:35.827Z,256
2017-12-12T07:47:36.063Z,304
2017-12-12T07:48:35.843Z,328
2017-12-12T07:49:35.879Z,328
2017-12-12T07:50:35.872Z,332
2017-12-12T07:51:35.398Z,336
2017-12-12T07:52:50.613Z,348
2017-12-12T07:53:35.941Z,364
2017-12-12T07:54:50.732Z,384
2017-12-12T07:55:35.757Z,408
2017-12-12T07:56:36.074Z,416
2017-12-12T07:57:50.696Z,424
2017-12-12T07:59:36.026Z,432
2017-12-12T08:00:50.710Z,464
2017-12-12T08:01:36.086Z,472
2017-12-12T08:02:36.100Z,500
2017-12-12T08:03:36.135Z,520
2017-12-12T08:04:50.779Z,552
2017-12-12T08:05:36.186Z,584
2017-12-12T08:06:36.157Z,588
2017-12-12T08:07:36.204Z,588
2017-12-12T08:08:36.189Z,604
2017-12-12T08:09:35.723Z,616
2017-12-12T08:10:50.913Z,636
2017-12-12T08:11:35.987Z,656
2017-12-12T08:12:36.288Z,668
2017-12-12T08:13:36.292Z,656
2017-12-12T08:14:36.352Z,640
2017-12-12T08:15:36.330Z,640
2017-12-12T08:16:36.374Z,584
2017-12-12T08:17:37.684Z,580
2017-12-12T08:18:36.371Z,616
2017-12-12T08:19:36.148Z,704
2017-12-12T08:20:36.418Z,616
2017-12-12T08:21:36.537Z,584
2017-12-12T08:22:50.877Z,580
2017-12-12T08:25:50.901Z,556
2017-12-12T08:26:51.288Z,528
2017-12-12T08:27:36.572Z,568
2017-12-12T08:28:36.584Z,504
2017-12-12T08:29:36.586Z,436
2017-12-12T08:30:36.582Z,388
2017-12-12T08:31:51.265Z,352
2017-12-12T08:32:36.640Z,328
2017-12-12T08:33:36.665Z,292
2017-12-12T08:34:36.666Z,264
2017-12-12T08:35:36.723Z,232
2017-12-12T08:36:40.594Z,208
2017-12-12T08:37:36.957Z,200
2017-12-12T08:38:37.600Z,196
2017-12-12T08:39:36.769Z,208
2017-12-12T08:40:36.758Z,252
2017-12-12T08:41:36.850Z,304
2017-12-12T08:44:51.526Z,472
2017-12-12T08:45:36.852Z,544
2017-12-12T08:46:36.869Z,600
2017-12-12T08:47:36.897Z,588
2017-12-12T08:48:36.907Z,632
2017-12-12T08:50:36.964Z,636
2017-12-12T08:52:36.974Z,756
2017-12-12T08:54:37.000Z,736
2017-12-12T08:55:37.035Z,704
2017-12-12T08:56:51.718Z,676
2017-12-12T08:58:37.068Z,888
2017-12-12T08:59:36.866Z,992
2017-12-12T09:00:37.108Z,1148
2017-12-12T09:01:37.125Z,1336
2017-12-12T09:02:37.172Z,1332
2017-12-12T09:03:37.245Z,1248
2017-12-12T09:04:37.186Z,1176
2017-12-12T09:05:37.194Z,1232
2017-12-12T09:06:37.237Z,1296
2017-12-12T09:07:37.260Z,1200
2017-12-12T09:08:37.250Z,1304
2017-12-12T09:09:51.959Z,1232
2017-12-12T09:10:37.271Z,1188
2017-12-12T09:11:37.307Z,1304
2017-12-12T09:12:37.350Z,1216
2017-12-12T09:13:51.985Z,1404
2017-12-12T09:14:37.355Z,1420
2017-12-12T09:15:37.105Z,1584
2017-12-12T09:17:37.440Z,1676
2017-12-12T09:18:37.433Z,1752
2017-12-12T09:19:37.460Z,1616
2017-12-12T09:20:37.448Z,1376
2017-12-12T09:21:37.467Z,1184
2017-12-12T09:22:37.500Z,920
2017-12-12T09:24:37.443Z,748
2017-12-12T09:25:37.535Z,836
2017-12-12T09:26:37.271Z,848
2017-12-12T09:27:52.220Z,828
2017-12-12T09:28:37.625Z,672
2017-12-12T09:29:52.294Z,728
2017-12-12T09:30:37.353Z,636
2017-12-12T09:31:37.632Z,696
2017-12-12T09:32:37.665Z,840
2017-12-12T09:33:37.705Z,576
2017-12-12T09:34:37.687Z,696
2017-12-12T09:35:52.349Z,940
2017-12-12T09:36:37.496Z,740
2017-12-12T09:37:37.482Z,832
2017-12-12T09:38:37.543Z,784
2017-12-12T09:39:37.539Z,696
2017-12-12T09:40:37.851Z,616
2017-12-12T09:42:37.819Z,772
2017-12-12T09:43:37.840Z,764
2017-12-12T09:44:37.847Z,828
2017-12-12T09:45:52.512Z,960
2017-12-12T09:46:37.606Z,1012
2017-12-12T09:47:37.907Z,1056
2017-12-12T09:48:52.563Z,1084
2017-12-12T09:49:37.927Z,1092
2017-12-12T09:51:37.995Z,1420
2017-12-12T09:52:37.974Z,1528
2017-12-12T09:53:38.011Z,1828
2017-12-12T09:55:38.042Z,2464
2017-12-12T09:56:38.034Z,2528
2017-12-12T09:57:37.845Z,2876
2017-12-12T09:58:38.085Z,3304
2017-12-12T09:59:38.107Z,3124
2017-12-12T10:00:52.786Z,2240
2017-12-12T10:01:37.874Z,1968
2017-12-12T10:03:38.198Z,1684
2017-12-12T10:04:37.955Z,1624
2017-12-12T10:05:52.843Z,1352
2017-12-12T10:06:38.233Z,1256
2017-12-12T10:07:38.358Z,1124
2017-12-12T10:08:38.256Z,1048
2017-12-12T10:09:38.276Z,876
2017-12-12T10:10:38.267Z,796
2017-12-12T10:11:38.291Z,784
2017-12-12T10:13:52.482Z,708
2017-12-12T10:14:38.332Z,804
2017-12-12T10:15:38.123Z,920
2017-12-12T10:16:38.388Z,1020
2017-12-12T10:17:38.359Z,1016
2017-12-12T10:18:38.433Z,1244
2017-12-12T10:19:38.483Z,1300
2017-12-12T10:20:38.178Z,1220
2017-12-12T10:21:53.108Z,1332
2017-12-12T10:22:38.486Z,1520
2017-12-12T10:23:38.498Z,1344
2017-12-12T10:24:38.528Z,1400
2017-12-12T10:25:38.503Z,1760
2017-12-12T10:26:38.568Z,2056
2017-12-12T10:27:38.313Z,2416
2017-12-12T10:28:38.585Z,2824
2017-12-12T10:29:38.605Z,2588
2017-12-12T10:30:53.017Z,2392
2017-12-12T10:31:38.349Z,2372
2017-12-12T10:32:53.051Z,2168
2017-12-12T10:33:38.635Z,2156
2017-12-12T10:34:38.641Z,1916
2017-12-12T10:35:53.361Z,1748
2017-12-12T10:36:53.357Z,1820
2017-12-12T10:37:38.461Z,1780
2017-12-12T10:38:38.756Z,1756
2017-12-12T10:39:38.841Z,1664
2017-12-12T10:40:38.761Z,1268
2017-12-12T10:42:38.830Z,1216
2017-12-12T10:43:38.900Z,1096
2017-12-12T10:44:38.821Z,1464
2017-12-12T10:45:38.595Z,1212
2017-12-12T10:46:38.865Z,1120
2017-12-12T10:47:38.638Z,1168
2017-12-12T10:49:07.962Z,1264
2017-12-12T10:50:38.675Z,1352
2017-12-12T10:51:38.694Z,1436
2017-12-12T10:53:38.962Z,1944
2017-12-12T10:56:38.988Z,1896
2017-12-12T10:57:38.810Z,1868
2017-12-12T10:58:39.167Z,1612
2017-12-12T10:59:39.068Z,1672
2017-12-12T11:00:38.845Z,1692
2017-12-12T11:01:39.071Z,1460
2017-12-12T11:02:38.848Z,1524
2017-12-12T11:03:39.128Z,1552
2017-12-12T11:04:53.818Z,1224
2017-12-12T11:05:38.666Z,944
2017-12-12T11:06:38.944Z,1032
2017-12-12T11:07:39.182Z,1196
2017-12-12T11:08:38.954Z,976
2017-12-12T11:09:39.228Z,908
2017-12-12T11:10:39.239Z,748
2017-12-12T11:11:39.242Z,860
2017-12-12T11:12:39.310Z,916
2017-12-12T11:13:53.934Z,1020
2017-12-12T11:14:39.308Z,1008
2017-12-12T11:15:38.816Z,952
2017-12-12T11:16:39.338Z,856
2017-12-12T11:17:39.357Z,936
2017-12-12T11:19:39.387Z,908
2017-12-12T11:20:54.095Z,984
2017-12-12T11:21:39.424Z,824
2017-12-12T11:22:39.434Z,1004
2017-12-12T11:23:54.143Z,1100
2017-12-12T11:24:54.137Z,916
2017-12-12T11:26:39.528Z,988
2017-12-12T11:27:39.485Z,888
2017-12-12T11:28:39.267Z,940
2017-12-12T11:29:39.307Z,920
2017-12-12T11:30:39.356Z,836
2017-12-12T11:32:39.615Z,844
2017-12-12T11:33:54.026Z,704
2017-12-12T11:34:39.100Z,756
2017-12-12T11:35:54.337Z,768
2017-12-12T11:36:39.671Z,1016
2017-12-12T11:37:39.681Z,916
2017-12-12T11:38:39.684Z,864
2017-12-12T11:39:39.713Z,708
2017-12-12T11:40:39.494Z,896
2017-12-12T11:42:39.757Z,948
2017-12-12T11:43:39.524Z,852
2017-12-12T11:44:39.804Z,892
2017-12-12T11:45:39.529Z,1112
2017-12-12T11:46:39.854Z,1020
2017-12-12T11:47:39.812Z,1004
2017-12-12T11:48:39.883Z,924
2017-12-12T11:49:39.643Z,1148
2017-12-12T11:50:39.849Z,1256
2017-12-12T11:51:39.888Z,1216
2017-12-12T11:52:39.905Z,1148
2017-12-12T11:53:39.950Z,1148
2017-12-12T11:54:40.040Z,1204
2017-12-12T11:55:54.604Z,1264
2017-12-12T11:56:39.970Z,1068
2017-12-12T11:57:39.723Z,1228
2017-12-12T11:58:39.989Z,1244
2017-12-12T11:59:40.028Z,1356
2017-12-12T12:00:40.036Z,1392
2017-12-12T12:01:40.061Z,1076
2017-12-12T12:02:40.100Z,1132
2017-12-12T12:03:40.099Z,1020
2017-12-12T12:04:39.859Z,1112
2017-12-12T12:05:40.119Z,904
2017-12-12T12:06:40.159Z,940
2017-12-12T12:07:54.820Z,1024
2017-12-12T12:08:40.186Z,1100
2017-12-12T12:09:39.946Z,968
2017-12-12T12:10:54.867Z,980
2017-12-12T12:11:40.202Z,916
2017-12-12T12:12:40.253Z,908
2017-12-12T12:13:39.974Z,984
2017-12-12T12:14:40.257Z,1008
2017-12-12T12:15:54.970Z,984
2017-12-12T12:16:40.284Z,968
2017-12-12T12:17:40.308Z,948
2017-12-12T12:18:40.318Z,968
2017-12-12T12:19:54.987Z,936
2017-12-12T12:20:40.356Z,888
2017-12-12T12:21:40.358Z,1056
2017-12-12T12:23:55.071Z,988
2017-12-12T12:24:40.445Z,1012
2017-12-12T12:25:40.431Z,1024
2017-12-12T12:26:40.440Z,1120
2017-12-12T12:27:40.222Z,1248
2017-12-12T12:28:40.487Z,1304
2017-12-12T12:29:40.251Z,1548
2017-12-12T12:30:40.255Z,1552
2017-12-12T12:31:40.275Z,1660
2017-12-12T12:32:40.524Z,2148
2017-12-12T12:33:40.556Z,2068
2017-12-12T12:34:40.582Z,2376
2017-12-12T12:35:40.597Z,2504
2017-12-12T12:36:40.099Z,2432
2017-12-12T12:37:40.393Z,2272
2017-12-12T12:38:40.401Z,1928
2017-12-12T12:39:55.308Z,2100
2017-12-12T12:40:40.680Z,2084
2017-12-12T12:41:55.357Z,1764
2017-12-12T12:42:40.674Z,1836
2017-12-12T12:43:40.752Z,1888
2017-12-12T12:44:40.474Z,1728
2017-12-12T12:45:40.507Z,1864
2017-12-12T12:46:40.768Z,1952
2017-12-12T12:47:40.555Z,1772
2017-12-12T12:48:40.840Z,1592
2017-12-12T12:49:55.476Z,1480
2017-12-12T12:50:40.568Z,1500
2017-12-12T12:51:40.849Z,1428
2017-12-12T12:52:40.871Z,1440
2017-12-12T12:53:40.890Z,1352
2017-12-12T12:54:40.903Z,1508
2017-12-12T12:55:55.574Z,1532
2017-12-12T12:56:40.954Z,1576
2017-12-12T12:57:40.928Z,1348
2017-12-12T12:58:55.636Z,1228
2017-12-12T12:59:55.644Z,1176
2017-12-12T13:00:41.015Z,1144
2017-12-12T13:01:41.001Z,1120
2017-12-12T13:02:40.790Z,924
2017-12-12T13:03:41.040Z,924
2017-12-12T13:04:41.061Z,948
2017-12-12T13:05:40.801Z,1060
2017-12-12T13:06:41.108Z,1048
2017-12-12T13:07:40.861Z,1116
2017-12-12T13:08:41.144Z,1140
2017-12-12T13:09:41.140Z,1288
2017-12-12T13:10:55.825Z,1292
2017-12-12T13:11:41.178Z,1256
2017-12-12T13:12:41.211Z,1104
2017-12-12T13:13:41.247Z,1052
2017-12-12T13:14:55.890Z,972
2017-12-12T13:15:41.225Z,928
2017-12-12T13:16:41.278Z,864
2017-12-12T13:17:41.239Z,1080
2017-12-12T13:18:41.260Z,840
2017-12-12T13:19:41.323Z,660
2017-12-12T13:20:41.309Z,600
2017-12-12T13:21:41.310Z,568
2017-12-12T13:22:41.071Z,480
2017-12-12T13:24:56.072Z,540
2017-12-12T13:25:41.130Z,604
2017-12-12T13:27:41.459Z,776
2017-12-12T13:28:41.434Z,784
2017-12-12T13:29:41.464Z,724
2017-12-12T13:31:41.500Z,580
2017-12-12T13:32:41.503Z,612
2017-12-12T13:33:41.498Z,548
2017-12-12T13:34:55.971Z,604
2017-12-12T13:35:56.221Z,544
2017-12-12T13:36:41.303Z,596
2017-12-12T13:37:41.343Z,704
2017-12-12T13:38:41.632Z,580
2017-12-12T13:39:41.635Z,516
2017-12-12T13:40:41.625Z,420
2017-12-12T13:41:41.649Z,404
2017-12-12T13:42:56.368Z,424
2017-12-12T13:43:41.692Z,472
2017-12-12T13:44:41.696Z,424
2017-12-12T13:45:41.680Z,356
2017-12-12T13:46:41.713Z,312
2017-12-12T13:47:41.741Z,340
2017-12-12T13:48:41.740Z,364
2017-12-12T13:49:41.542Z,300
2017-12-12T13:50:41.784Z,244
2017-12-12T13:51:41.570Z,196
2017-12-12T13:52:41.824Z,204
2017-12-12T13:53:41.837Z,252
2017-12-12T13:54:41.857Z,308
2017-12-12T13:55:41.889Z,324
2017-12-12T13:56:41.931Z,288
2017-12-12T13:57:41.921Z,280
2017-12-12T13:58:56.609Z,284
2017-12-12T13:59:41.967Z,272
2017-12-12T14:01:41.978Z,224
2017-12-12T14:02:42.008Z,196
2017-12-12T14:03:42.027Z,176
2017-12-12T14:05:42.041Z,188
2017-12-12T14:06:42.045Z,172
2017-12-12T14:07:42.034Z,160
2017-12-12T14:08:42.116Z,144
2017-12-12T14:09:42.210Z,144
2017-12-12T14:10:42.154Z,152
2017-12-12T14:11:56.552Z,140
2017-12-12T14:12:42.157Z,120
2017-12-12T14:14:56.832Z,100
2017-12-12T14:15:42.165Z,100
2017-12-12T14:16:56.863Z,104
2017-12-12T14:17:42.238Z,100
2017-12-12T14:18:56.889Z,104
2017-12-12T14:19:42.020Z,96
2017-12-12T14:20:42.273Z,100
2017-12-12T14:21:42.327Z,108
2017-12-12T14:23:57.001Z,108
2017-12-12T14:24:56.752Z,108
2017-12-12T14:25:42.350Z,108
2017-12-12T14:26:42.127Z,108
2017-12-12T14:27:42.364Z,112
2017-12-12T14:28:42.145Z,100
2017-12-12T14:29:42.501Z,88
2017-12-12T14:30:57.114Z,84
2017-12-12T14:31:42.168Z,84
2017-12-12T14:32:42.469Z,92
2017-12-12T14:33:42.472Z,96
2017-12-12T14:34:42.527Z,104
2017-12-12T14:35:42.544Z,96
2017-12-12T14:36:42.524Z,84
2017-12-12T14:37:42.519Z,72
2017-12-12T14:38:42.581Z,68
2017-12-12T14:39:42.553Z,64
2017-12-12T14:40:42.330Z,60
2017-12-12T14:41:42.614Z,56
2017-12-12T14:42:42.355Z,56
2017-12-12T14:43:42.699Z,56
2017-12-12T14:44:57.327Z,52
2017-12-12T14:45:57.337Z,52
2017-12-12T14:46:42.695Z,52
2017-12-12T14:47:42.697Z,44
2017-12-12T14:48:42.727Z,44
2017-12-12T14:49:57.386Z,36
2017-12-12T14:50:42.481Z,32
2017-12-12T14:51:42.752Z,28
2017-12-12T14:52:42.790Z,28
2017-12-12T14:53:42.807Z,32
2017-12-12T14:54:42.574Z,32
2017-12-12T14:55:42.844Z,24
2017-12-12T14:56:57.574Z,24
2017-12-12T14:57:42.590Z,20
2017-12-12T14:58:42.912Z,20
2017-12-12T14:59:57.537Z,12
2017-12-12T15:00:42.880Z,16
2017-12-12T15:01:42.658Z,20
2017-12-12T15:02:42.692Z,16
2017-12-12T15:03:42.956Z,12
2017-12-12T15:04:42.972Z,8
2017-12-12T15:05:42.992Z,12
2017-12-12T15:06:42.740Z,12
2017-12-12T15:08:43.032Z,8
2017-12-12T15:09:43.076Z,4
2017-12-12T15:10:43.052Z,4
2017-12-12T15:11:43.086Z,4
2017-12-12T15:12:43.102Z,4
2017-12-12T15:13:57.792Z,4
2017-12-12T15:14:57.804Z,4
2017-12-12T15:15:43.165Z,4